メインページ
METAR-TAF:

METAR-TAF

空港 :

セントジョンズ国際空港

セントジョンズ, ニューファンドランド・ラブラドール州, カナダ

緯度: 47-37N, 経度: 052-44W, 海抜: 134m

現時点の気象観測

当レポートは4分前の23:52(UTC)に作成
南/南西の風 10kt
気温 20°C
湿度 100%
気圧 1020 hPa
視程: 24.1km
高度900ftの千切れ雲あり
高度3000ftの曇り
弱いにわか雨

METAR: CYYT 162352Z 20010KT 15SM -SHRA BKN009 OVC030 20/20 A3012 RMK SF6SC2 TCU EMBD SLP200 DENSITY ALT 1000FT

時間: 21:26 (23:56 UTC)

予報

当レポートは13分前の23:43(UTC)に作成
予報は17日の 00時(UTC)から 17日の 24時(UTC)まで有効
南/南西の風 10kt、最大20ktの突風を伴う
視程: 10km
高度800ftの雲は散在している
高度2500ftの曇り
弱いにわか雨
17日の 00時(UTC)から 17日の 03時(UTC)まで一時的に
視程: 3.2km
高度800ftの千切れ雲あり
高度2500ftの曇り
弱いにわか雨, 靄
17日の 0300時(UTC)から
の風 12kt、最大22ktの突風を伴う
視程: 9.7km
高度500ftの曇り
弱いにわか雨, 靄
17日の 03時(UTC)から 17日の 12時(UTC)まで一時的に
視程: 3.2km
高度300ftの曇り
弱いにわか雨, 靄
17日の 1400時(UTC)から
の風 18kt、最大28ktの突風を伴う
視程: 10km
高度1000ftの千切れ雲あり
17日の 19時(UTC)から 17日の 21時(UTC)まで徐々に
南西の風 15kt、最大25ktの突風を伴う

TAF: CYYT 162343Z 1700/1724 20010G20KT P6SM -SHRA SCT008 OVC025 TEMPO 1700/1703 2SM -SHRA BR BKN008 OVC025 FM170300 18012G22KT 6SM -SHRA BR OVC005 TEMPO 1703/1712 2SM -SHRA BR OVC003 FM171400 19018G28KT P6SM BKN010 BECMG 1719/1721 23015G25KT RMK NXT FCST BY 170600Z

4,000以上の空港の気象観測と天気予報(METAR報とTAF報)

利用可能な観測所は地図上に黄色い丸と赤い丸で示す。

丸の上にカーソルを重ねると観測所名を参照できる。

次にクリックすると気象観測と天気予報を参照できる。

マップの切り替え:黒色「×」印の緑ボタンをクリックして拡大、「-」印の緑ボタンをクリックして縮小、緑色の三角印をクリックして隣りの地図に切り替え


METAR-TAF: